Amity, Arkansas
Current Conditions -  °F | °C
As of 2:53 AM on Monday 24 Nov 2014 (Local Time) from KMWT Reporting Station
Overcast Overcast  
Wind Chill: 44°   Ceiling: 2700
Heat Index: 49°   Visibility: 10mi
Dew Point: 38°   Wind: 13mph
Humidity: 66%   Direction: 310°NW
Pressure: 29.69"   Gusts: 24mph
Location:  34.26°N, 93.46°W
Report Text: KMWT 240853Z AUTO 31011G21KT 270V340 10SM SCT023 BKN027 OVC035 09/03 A2969 RMK AO2 SLP052 T00940033 53051
Loading
Personal Weather Stations






























Interactive Weather Map New forecast layout! Learn more

10-Day Weather Forecast

Advertisements
Track Severe Weather on mobile